< < Back
Terminal Aerodrome Forecast


Current Version              Previous Versions:   1  2  3  4  5  6  7  8  9  

Terminal Aerodrome Forecast

487
FTUS42 KGSP 291128
TAFCLT
TAF
KCLT 291128Z 2912/3012 36004KT P6SM OVC004
     FM291300 01005KT P6SM FEW010
      TEMPO 2913/2914 BKN004
     FM291500 35005KT P6SM SKC
     FM291900 25005KT P6SM FEW250
     FM300200 12003KT P6SM SCT150 BKN250=

Latest METAR

880
SAUS70 KWBC 291600 RRE
MTRCLT
METAR KCLT 291552Z 00000KT 10SM SCT250 27/13 A3000 RMK AO2 SLP149
T02670128


USA.gov is the U.S. government's official web portal to all federal, state and local government web resources and services.